sensor_id;sensor_type;location;lat;lon;timestamp;temperature;humidity
59007;DHT22;44792;52.760;6.726;2023-06-04T00:01:22;13.10;99.90
59007;DHT22;44792;52.760;6.726;2023-06-04T00:03:47;13.10;99.90
59007;DHT22;44792;52.760;6.726;2023-06-04T00:06:13;13.00;99.90
59007;DHT22;44792;52.760;6.726;2023-06-04T00:08:39;13.00;99.90
59007;DHT22;44792;52.760;6.726;2023-06-04T00:11:04;13.00;99.90
59007;DHT22;44792;52.760;6.726;2023-06-04T00:13:30;12.90;99.90
59007;DHT22;44792;52.760;6.726;2023-06-04T00:15:56;12.90;99.90
59007;DHT22;44792;52.760;6.726;2023-06-04T00:18:22;12.90;99.90
59007;DHT22;44792;52.760;6.726;2023-06-04T00:20:47;12.90;99.90
59007;DHT22;44792;52.760;6.726;2023-06-04T00:23:13;12.80;99.90
59007;DHT22;44792;52.760;6.726;2023-06-04T00:25:39;12.80;99.90
59007;DHT22;44792;52.760;6.726;2023-06-04T00:28:05;12.70;99.90
59007;DHT22;44792;52.760;6.726;2023-06-04T00:30:31;12.80;99.90
59007;DHT22;44792;52.760;6.726;2023-06-04T00:32:56;12.70;99.90
59007;DHT22;44792;52.760;6.726;2023-06-04T00:35:22;12.70;99.90
59007;DHT22;44792;52.760;6.726;2023-06-04T00:37:48;12.60;99.90
59007;DHT22;44792;52.760;6.726;2023-06-04T00:40:14;12.70;99.90
59007;DHT22;44792;52.760;6.726;2023-06-04T00:42:40;12.70;99.90
59007;DHT22;44792;52.760;6.726;2023-06-04T00:45:06;12.60;99.90
59007;DHT22;44792;52.760;6.726;2023-06-04T00:47:33;12.50;99.90
59007;DHT22;44792;52.760;6.726;2023-06-04T00:49:59;12.50;99.90
59007;DHT22;44792;52.760;6.726;2023-06-04T00:52:25;12.40;99.90
59007;DHT22;44792;52.760;6.726;2023-06-04T00:54:52;12.40;99.90
59007;DHT22;44792;52.760;6.726;2023-06-04T00:57:17;12.40;99.90
59007;DHT22;44792;52.760;6.726;2023-06-04T00:59:43;12.40;99.90
59007;DHT22;44792;52.760;6.726;2023-06-04T01:02:12;12.30;99.90
59007;DHT22;44792;52.760;6.726;2023-06-04T01:07:27;12.30;99.90
59007;DHT22;44792;52.760;6.726;2023-06-04T01:09:56;12.30;99.90
59007;DHT22;44792;52.760;6.726;2023-06-04T01:12:22;12.30;99.90
59007;DHT22;44792;52.760;6.726;2023-06-04T01:14:48;12.20;99.90
59007;DHT22;44792;52.760;6.726;2023-06-04T01:17:19;12.20;99.90
59007;DHT22;44792;52.760;6.726;2023-06-04T01:25:24;12.20;99.90
59007;DHT22;44792;52.760;6.726;2023-06-04T01:27:53;12.20;99.90
59007;DHT22;44792;52.760;6.726;2023-06-04T01:30:26;12.10;99.90
59007;DHT22;44792;52.760;6.726;2023-06-04T01:32:55;12.10;99.90
59007;DHT22;44792;52.760;6.726;2023-06-04T01:35:22;12.10;99.90
59007;DHT22;44792;52.760;6.726;2023-06-04T01:37:48;12.10;99.90
59007;DHT22;44792;52.760;6.726;2023-06-04T01:40:14;12.00;99.90
59007;DHT22;44792;52.760;6.726;2023-06-04T01:42:44;12.00;99.90
59007;DHT22;44792;52.760;6.726;2023-06-04T01:45:10;12.00;99.90
59007;DHT22;44792;52.760;6.726;2023-06-04T01:47:36;12.00;99.90
59007;DHT22;44792;52.760;6.726;2023-06-04T01:50:06;12.00;99.90
59007;DHT22;44792;52.760;6.726;2023-06-04T01:52:40;11.90;99.90
59007;DHT22;44792;52.760;6.726;2023-06-04T01:55:08;11.90;99.90
59007;DHT22;44792;52.760;6.726;2023-06-04T01:57:34;11.90;99.90
59007;DHT22;44792;52.760;6.726;2023-06-04T02:00:05;11.90;99.90
59007;DHT22;44792;52.760;6.726;2023-06-04T02:02:42;11.80;99.90
59007;DHT22;44792;52.760;6.726;2023-06-04T02:05:08;11.80;99.90
59007;DHT22;44792;52.760;6.726;2023-06-04T02:07:35;11.80;99.90
59007;DHT22;44792;52.760;6.726;2023-06-04T02:10:11;11.70;99.90
59007;DHT22;44792;52.760;6.726;2023-06-04T02:12:38;11.70;99.90
59007;DHT22;44792;52.760;6.726;2023-06-04T02:15:05;11.60;99.90
59007;DHT22;44792;52.760;6.726;2023-06-04T02:17:31;11.50;99.90
59007;DHT22;44792;52.760;6.726;2023-06-04T02:20:04;11.60;99.90
59007;DHT22;44792;52.760;6.726;2023-06-04T02:22:35;11.60;99.90
59007;DHT22;44792;52.760;6.726;2023-06-04T02:25:00;11.60;99.90
59007;DHT22;44792;52.760;6.726;2023-06-04T02:27:26;11.50;99.90
59007;DHT22;44792;52.760;6.726;2023-06-04T02:29:52;11.50;99.90
59007;DHT22;44792;52.760;6.726;2023-06-04T02:32:17;11.50;99.90
59007;DHT22;44792;52.760;6.726;2023-06-04T02:34:43;11.40;99.90
59007;DHT22;44792;52.760;6.726;2023-06-04T02:37:10;11.40;99.90
59007;DHT22;44792;52.760;6.726;2023-06-04T02:39:35;11.40;99.90
59007;DHT22;44792;52.760;6.726;2023-06-04T02:42:01;11.30;99.90
59007;DHT22;44792;52.760;6.726;2023-06-04T02:44:27;11.20;99.90
59007;DHT22;44792;52.760;6.726;2023-06-04T02:46:55;11.20;99.90
59007;DHT22;44792;52.760;6.726;2023-06-04T02:49:20;11.30;99.90
59007;DHT22;44792;52.760;6.726;2023-06-04T02:51:47;11.30;99.90
59007;DHT22;44792;52.760;6.726;2023-06-04T02:54:12;11.10;99.90
59007;DHT22;44792;52.760;6.726;2023-06-04T02:56:38;11.10;99.90
59007;DHT22;44792;52.760;6.726;2023-06-04T02:59:05;11.10;99.90
59007;DHT22;44792;52.760;6.726;2023-06-04T03:01:31;11.10;99.90
59007;DHT22;44792;52.760;6.726;2023-06-04T03:03:57;11.00;99.90
59007;DHT22;44792;52.760;6.726;2023-06-04T03:06:26;11.00;99.90
59007;DHT22;44792;52.760;6.726;2023-06-04T03:08:52;10.90;99.90
59007;DHT22;44792;52.760;6.726;2023-06-04T03:11:18;10.90;99.90
59007;DHT22;44792;52.760;6.726;2023-06-04T03:13:46;11.00;99.90
59007;DHT22;44792;52.760;6.726;2023-06-04T03:16:12;10.90;99.90
59007;DHT22;44792;52.760;6.726;2023-06-04T03:18:39;11.00;99.90
59007;DHT22;44792;52.760;6.726;2023-06-04T03:21:05;11.00;99.90
59007;DHT22;44792;52.760;6.726;2023-06-04T03:23:32;10.90;99.90
59007;DHT22;44792;52.760;6.726;2023-06-04T03:25:58;10.90;99.90
59007;DHT22;44792;52.760;6.726;2023-06-04T03:28:24;10.90;99.90
59007;DHT22;44792;52.760;6.726;2023-06-04T03:30:49;10.90;99.90
59007;DHT22;44792;52.760;6.726;2023-06-04T03:33:15;10.90;99.90
59007;DHT22;44792;52.760;6.726;2023-06-04T03:35:41;10.90;99.90
59007;DHT22;44792;52.760;6.726;2023-06-04T03:38:07;10.90;99.90
59007;DHT22;44792;52.760;6.726;2023-06-04T03:40:33;10.90;99.90
59007;DHT22;44792;52.760;6.726;2023-06-04T03:42:59;10.90;99.90
59007;DHT22;44792;52.760;6.726;2023-06-04T03:45:26;10.80;99.90
59007;DHT22;44792;52.760;6.726;2023-06-04T03:47:51;10.80;99.90
59007;DHT22;44792;52.760;6.726;2023-06-04T03:50:20;10.80;99.90
59007;DHT22;44792;52.760;6.726;2023-06-04T03:52:48;10.90;99.90
59007;DHT22;44792;52.760;6.726;2023-06-04T03:55:16;10.90;99.90
59007;DHT22;44792;52.760;6.726;2023-06-04T03:57:42;10.90;99.90
59007;DHT22;44792;52.760;6.726;2023-06-04T04:00:11;11.00;99.90
59007;DHT22;44792;52.760;6.726;2023-06-04T04:02:41;11.10;99.90
59007;DHT22;44792;52.760;6.726;2023-06-04T04:05:08;11.10;99.90
59007;DHT22;44792;52.760;6.726;2023-06-04T04:07:35;11.20;99.90
59007;DHT22;44792;52.760;6.726;2023-06-04T04:10:01;11.20;99.90
59007;DHT22;44792;52.760;6.726;2023-06-04T04:12:27;11.40;99.90
59007;DHT22;44792;52.760;6.726;2023-06-04T04:14:53;11.40;99.90
59007;DHT22;44792;52.760;6.726;2023-06-04T04:17:18;11.40;99.90
59007;DHT22;44792;52.760;6.726;2023-06-04T04:19:44;11.50;99.90
59007;DHT22;44792;52.760;6.726;2023-06-04T04:22:11;11.60;99.90
59007;DHT22;44792;52.760;6.726;2023-06-04T04:24:36;11.60;99.90
59007;DHT22;44792;52.760;6.726;2023-06-04T04:27:03;11.70;99.90
59007;DHT22;44792;52.760;6.726;2023-06-04T04:29:30;11.70;99.90
59007;DHT22;44792;52.760;6.726;2023-06-04T04:32:00;11.80;99.90
59007;DHT22;44792;52.760;6.726;2023-06-04T04:34:26;11.90;99.90
59007;DHT22;44792;52.760;6.726;2023-06-04T04:36:53;11.90;99.90
59007;DHT22;44792;52.760;6.726;2023-06-04T04:39:25;11.90;99.90
59007;DHT22;44792;52.760;6.726;2023-06-04T04:41:54;12.00;99.90
59007;DHT22;44792;52.760;6.726;2023-06-04T04:44:20;12.20;99.90
59007;DHT22;44792;52.760;6.726;2023-06-04T04:46:48;12.20;99.90
59007;DHT22;44792;52.760;6.726;2023-06-04T04:49:14;12.30;99.90
59007;DHT22;44792;52.760;6.726;2023-06-04T04:51:40;12.40;99.90
59007;DHT22;44792;52.760;6.726;2023-06-04T04:54:05;12.60;99.90
59007;DHT22;44792;52.760;6.726;2023-06-04T04:56:33;12.60;99.90
59007;DHT22;44792;52.760;6.726;2023-06-04T04:59:02;12.70;99.90
59007;DHT22;44792;52.760;6.726;2023-06-04T05:01:28;12.80;99.90
59007;DHT22;44792;52.760;6.726;2023-06-04T05:03:56;12.90;99.90
59007;DHT22;44792;52.760;6.726;2023-06-04T05:06:22;13.00;99.90
59007;DHT22;44792;52.760;6.726;2023-06-04T05:08:50;13.10;99.90
59007;DHT22;44792;52.760;6.726;2023-06-04T05:11:16;13.20;99.90
59007;DHT22;44792;52.760;6.726;2023-06-04T05:13:42;13.20;99.90
59007;DHT22;44792;52.760;6.726;2023-06-04T05:16:07;13.40;99.90
59007;DHT22;44792;52.760;6.726;2023-06-04T05:18:34;13.50;99.90
59007;DHT22;44792;52.760;6.726;2023-06-04T05:21:00;13.60;99.90
59007;DHT22;44792;52.760;6.726;2023-06-04T05:23:28;13.70;99.90
59007;DHT22;44792;52.760;6.726;2023-06-04T05:25:55;13.80;99.90
59007;DHT22;44792;52.760;6.726;2023-06-04T05:28:21;13.80;99.90
59007;DHT22;44792;52.760;6.726;2023-06-04T05:30:53;14.00;99.90
59007;DHT22;44792;52.760;6.726;2023-06-04T05:33:25;14.00;99.90
59007;DHT22;44792;52.760;6.726;2023-06-04T05:35:50;14.00;99.90
59007;DHT22;44792;52.760;6.726;2023-06-04T05:38:25;14.10;99.90
59007;DHT22;44792;52.760;6.726;2023-06-04T05:40:55;14.20;99.90
59007;DHT22;44792;52.760;6.726;2023-06-04T05:43:21;14.30;99.90
59007;DHT22;44792;52.760;6.726;2023-06-04T05:45:47;14.50;99.90
59007;DHT22;44792;52.760;6.726;2023-06-04T05:48:13;14.50;99.90
59007;DHT22;44792;52.760;6.726;2023-06-04T05:50:39;14.70;99.90
59007;DHT22;44792;52.760;6.726;2023-06-04T05:53:05;14.70;99.90
59007;DHT22;44792;52.760;6.726;2023-06-04T05:55:30;14.70;99.90
59007;DHT22;44792;52.760;6.726;2023-06-04T05:57:56;14.70;99.90
59007;DHT22;44792;52.760;6.726;2023-06-04T06:00:22;14.80;99.90
59007;DHT22;44792;52.760;6.726;2023-06-04T06:02:52;14.80;99.90
59007;DHT22;44792;52.760;6.726;2023-06-04T06:05:19;14.80;99.90
59007;DHT22;44792;52.760;6.726;2023-06-04T06:07:45;14.80;99.90
59007;DHT22;44792;52.760;6.726;2023-06-04T06:10:12;14.80;99.90
59007;DHT22;44792;52.760;6.726;2023-06-04T06:12:38;14.90;99.90
59007;DHT22;44792;52.760;6.726;2023-06-04T06:15:04;14.90;99.90
59007;DHT22;44792;52.760;6.726;2023-06-04T06:17:30;14.90;99.90
59007;DHT22;44792;52.760;6.726;2023-06-04T06:19:56;14.80;99.90
59007;DHT22;44792;52.760;6.726;2023-06-04T06:22:22;14.90;99.90
59007;DHT22;44792;52.760;6.726;2023-06-04T06:24:48;15.00;99.90
59007;DHT22;44792;52.760;6.726;2023-06-04T06:27:14;15.10;99.90
59007;DHT22;44792;52.760;6.726;2023-06-04T06:29:41;15.10;99.90
59007;DHT22;44792;52.760;6.726;2023-06-04T06:32:08;15.20;99.90
59007;DHT22;44792;52.760;6.726;2023-06-04T06:34:34;15.20;99.90
59007;DHT22;44792;52.760;6.726;2023-06-04T06:37:00;15.30;99.90
59007;DHT22;44792;52.760;6.726;2023-06-04T06:39:25;15.40;99.90
59007;DHT22;44792;52.760;6.726;2023-06-04T06:41:54;15.40;99.90
59007;DHT22;44792;52.760;6.726;2023-06-04T06:44:20;15.50;99.90
59007;DHT22;44792;52.760;6.726;2023-06-04T06:46:46;15.50;99.90
59007;DHT22;44792;52.760;6.726;2023-06-04T06:49:14;15.70;99.90
59007;DHT22;44792;52.760;6.726;2023-06-04T06:51:40;15.70;99.90
59007;DHT22;44792;52.760;6.726;2023-06-04T06:54:08;15.60;99.90
59007;DHT22;44792;52.760;6.726;2023-06-04T06:56:34;15.70;99.90
59007;DHT22;44792;52.760;6.726;2023-06-04T06:59:00;15.80;99.90
59007;DHT22;44792;52.760;6.726;2023-06-04T07:01:26;15.80;99.90
59007;DHT22;44792;52.760;6.726;2023-06-04T07:03:52;15.80;99.90
59007;DHT22;44792;52.760;6.726;2023-06-04T07:06:18;15.60;99.90
59007;DHT22;44792;52.760;6.726;2023-06-04T07:08:44;15.80;99.90
59007;DHT22;44792;52.760;6.726;2023-06-04T07:11:09;15.90;99.90
59007;DHT22;44792;52.760;6.726;2023-06-04T07:13:38;16.00;99.90
59007;DHT22;44792;52.760;6.726;2023-06-04T07:16:06;16.10;99.90
59007;DHT22;44792;52.760;6.726;2023-06-04T07:18:32;16.20;99.90
59007;DHT22;44792;52.760;6.726;2023-06-04T07:21:01;16.40;99.90
59007;DHT22;44792;52.760;6.726;2023-06-04T07:23:26;16.40;99.90
59007;DHT22;44792;52.760;6.726;2023-06-04T07:25:53;16.40;99.90
59007;DHT22;44792;52.760;6.726;2023-06-04T07:28:21;16.40;99.90
59007;DHT22;44792;52.760;6.726;2023-06-04T07:30:46;16.50;99.90
59007;DHT22;44792;52.760;6.726;2023-06-04T07:33:12;16.50;99.90
59007;DHT22;44792;52.760;6.726;2023-06-04T07:35:38;16.60;99.90
59007;DHT22;44792;52.760;6.726;2023-06-04T07:38:03;16.60;99.90
59007;DHT22;44792;52.760;6.726;2023-06-04T07:40:29;16.70;99.90
59007;DHT22;44792;52.760;6.726;2023-06-04T07:42:55;16.80;99.90
59007;DHT22;44792;52.760;6.726;2023-06-04T07:45:21;16.80;99.90
59007;DHT22;44792;52.760;6.726;2023-06-04T07:47:47;16.90;99.90
59007;DHT22;44792;52.760;6.726;2023-06-04T07:50:12;16.90;99.90
59007;DHT22;44792;52.760;6.726;2023-06-04T07:52:38;17.00;99.90
59007;DHT22;44792;52.760;6.726;2023-06-04T07:55:04;17.10;99.90
59007;DHT22;44792;52.760;6.726;2023-06-04T07:57:30;17.10;99.90
59007;DHT22;44792;52.760;6.726;2023-06-04T07:59:57;17.10;99.90
59007;DHT22;44792;52.760;6.726;2023-06-04T08:02:23;17.20;99.90
59007;DHT22;44792;52.760;6.726;2023-06-04T08:04:49;17.20;99.90
59007;DHT22;44792;52.760;6.726;2023-06-04T08:07:15;17.30;99.90
59007;DHT22;44792;52.760;6.726;2023-06-04T08:09:41;17.30;99.90
59007;DHT22;44792;52.760;6.726;2023-06-04T08:12:07;17.30;99.90
59007;DHT22;44792;52.760;6.726;2023-06-04T08:14:32;17.40;99.90
59007;DHT22;44792;52.760;6.726;2023-06-04T08:16:58;17.50;99.90
59007;DHT22;44792;52.760;6.726;2023-06-04T08:19:24;17.50;99.90
59007;DHT22;44792;52.760;6.726;2023-06-04T08:21:50;17.70;99.90
59007;DHT22;44792;52.760;6.726;2023-06-04T08:24:16;17.70;99.90
59007;DHT22;44792;52.760;6.726;2023-06-04T08:26:42;17.80;99.90
59007;DHT22;44792;52.760;6.726;2023-06-04T08:29:10;17.80;99.90
59007;DHT22;44792;52.760;6.726;2023-06-04T08:31:36;17.80;99.90
59007;DHT22;44792;52.760;6.726;2023-06-04T08:34:02;17.90;99.90
59007;DHT22;44792;52.760;6.726;2023-06-04T08:36:30;17.90;99.90
59007;DHT22;44792;52.760;6.726;2023-06-04T08:38:58;18.10;99.90
59007;DHT22;44792;52.760;6.726;2023-06-04T08:41:35;18.10;99.90
59007;DHT22;44792;52.760;6.726;2023-06-04T08:44:05;18.20;99.90
59007;DHT22;44792;52.760;6.726;2023-06-04T08:46:39;18.20;99.90
59007;DHT22;44792;52.760;6.726;2023-06-04T08:49:08;18.30;99.90
59007;DHT22;44792;52.760;6.726;2023-06-04T08:51:37;18.40;99.90
59007;DHT22;44792;52.760;6.726;2023-06-04T08:54:07;18.40;99.90
59007;DHT22;44792;52.760;6.726;2023-06-04T08:56:33;18.40;99.90
59007;DHT22;44792;52.760;6.726;2023-06-04T08:59:05;18.50;99.90
59007;DHT22;44792;52.760;6.726;2023-06-04T09:01:33;18.50;99.90
59007;DHT22;44792;52.760;6.726;2023-06-04T09:04:04;18.40;99.90
59007;DHT22;44792;52.760;6.726;2023-06-04T09:06:32;18.50;99.90
59007;DHT22;44792;52.760;6.726;2023-06-04T09:09:01;18.70;99.90
59007;DHT22;44792;52.760;6.726;2023-06-04T09:11:39;18.70;99.90
59007;DHT22;44792;52.760;6.726;2023-06-04T09:14:07;18.70;99.90
59007;DHT22;44792;52.760;6.726;2023-06-04T09:16:46;18.90;99.90
59007;DHT22;44792;52.760;6.726;2023-06-04T09:19:13;18.70;99.90
59007;DHT22;44792;52.760;6.726;2023-06-04T09:24:18;18.80;99.90
59007;DHT22;44792;52.760;6.726;2023-06-04T09:26:44;18.90;99.90
59007;DHT22;44792;52.760;6.726;2023-06-04T09:29:10;19.00;99.90
59007;DHT22;44792;52.760;6.726;2023-06-04T09:31:36;19.10;99.90
59007;DHT22;44792;52.760;6.726;2023-06-04T09:34:06;19.20;99.90
59007;DHT22;44792;52.760;6.726;2023-06-04T09:36:33;19.10;99.90
59007;DHT22;44792;52.760;6.726;2023-06-04T09:39:04;19.30;99.90
59007;DHT22;44792;52.760;6.726;2023-06-04T09:41:30;19.20;99.90
59007;DHT22;44792;52.760;6.726;2023-06-04T09:44:03;19.20;99.90
59007;DHT22;44792;52.760;6.726;2023-06-04T09:46:29;19.30;99.90
59007;DHT22;44792;52.760;6.726;2023-06-04T09:49:03;19.30;99.90
59007;DHT22;44792;52.760;6.726;2023-06-04T09:51:30;19.40;99.90
59007;DHT22;44792;52.760;6.726;2023-06-04T09:54:02;19.40;99.90
59007;DHT22;44792;52.760;6.726;2023-06-04T09:56:29;19.40;99.90
59007;DHT22;44792;52.760;6.726;2023-06-04T09:58:59;19.30;99.90
59007;DHT22;44792;52.760;6.726;2023-06-04T10:01:29;19.40;99.90
59007;DHT22;44792;52.760;6.726;2023-06-04T10:03:58;19.40;99.90
59007;DHT22;44792;52.760;6.726;2023-06-04T10:06:27;19.50;99.90
59007;DHT22;44792;52.760;6.726;2023-06-04T10:08:57;19.70;99.40
59007;DHT22;44792;52.760;6.726;2023-06-04T10:11:33;19.60;99.70
59007;DHT22;44792;52.760;6.726;2023-06-04T10:14:00;19.60;98.70
59007;DHT22;44792;52.760;6.726;2023-06-04T10:16:28;19.60;97.70
59007;DHT22;44792;52.760;6.726;2023-06-04T10:18:57;19.60;98.50
59007;DHT22;44792;52.760;6.726;2023-06-04T10:21:23;19.70;98.00
59007;DHT22;44792;52.760;6.726;2023-06-04T10:23:50;19.60;97.20
59007;DHT22;44792;52.760;6.726;2023-06-04T10:26:16;19.70;98.20
59007;DHT22;44792;52.760;6.726;2023-06-04T10:28:42;19.70;97.90
59007;DHT22;44792;52.760;6.726;2023-06-04T10:31:09;19.60;98.80
59007;DHT22;44792;52.760;6.726;2023-06-04T10:33:36;19.70;98.70
59007;DHT22;44792;52.760;6.726;2023-06-04T10:36:16;19.80;98.60
59007;DHT22;44792;52.760;6.726;2023-06-04T10:38:53;19.80;98.40
59007;DHT22;44792;52.760;6.726;2023-06-04T10:41:23;19.80;98.10
59007;DHT22;44792;52.760;6.726;2023-06-04T10:43:51;19.80;97.60
59007;DHT22;44792;52.760;6.726;2023-06-04T10:46:18;19.80;98.00
59007;DHT22;44792;52.760;6.726;2023-06-04T10:48:54;19.80;97.30
59007;DHT22;44792;52.760;6.726;2023-06-04T10:51:30;19.80;97.60
59007;DHT22;44792;52.760;6.726;2023-06-04T10:53:58;19.90;97.10
59007;DHT22;44792;52.760;6.726;2023-06-04T10:56:30;20.00;97.50
59007;DHT22;44792;52.760;6.726;2023-06-04T10:59:00;20.10;97.40
59007;DHT22;44792;52.760;6.726;2023-06-04T11:01:27;20.10;97.30
59007;DHT22;44792;52.760;6.726;2023-06-04T11:04:00;20.10;97.20
59007;DHT22;44792;52.760;6.726;2023-06-04T11:06:26;20.20;97.30
59007;DHT22;44792;52.760;6.726;2023-06-04T11:09:03;20.20;97.60
59007;DHT22;44792;52.760;6.726;2023-06-04T11:11:29;20.30;98.10
59007;DHT22;44792;52.760;6.726;2023-06-04T11:13:55;20.30;97.90
59007;DHT22;44792;52.760;6.726;2023-06-04T11:16:21;20.30;97.80
59007;DHT22;44792;52.760;6.726;2023-06-04T11:18:57;20.40;97.10
59007;DHT22;44792;52.760;6.726;2023-06-04T11:21:27;20.30;96.40
59007;DHT22;44792;52.760;6.726;2023-06-04T11:24:00;20.40;96.50
59007;DHT22;44792;52.760;6.726;2023-06-04T11:26:36;20.40;97.00
59007;DHT22;44792;52.760;6.726;2023-06-04T11:29:07;20.40;96.40
59007;DHT22;44792;52.760;6.726;2023-06-04T11:31:45;20.40;97.20
59007;DHT22;44792;52.760;6.726;2023-06-04T11:34:27;20.40;97.10
59007;DHT22;44792;52.760;6.726;2023-06-04T11:36:53;20.20;97.00
59007;DHT22;44792;52.760;6.726;2023-06-04T11:39:21;20.40;97.00
59007;DHT22;44792;52.760;6.726;2023-06-04T11:41:47;20.40;96.90
59007;DHT22;44792;52.760;6.726;2023-06-04T11:44:19;20.50;96.70
59007;DHT22;44792;52.760;6.726;2023-06-04T11:46:45;20.50;96.80
59007;DHT22;44792;52.760;6.726;2023-06-04T11:49:18;20.30;96.20
59007;DHT22;44792;52.760;6.726;2023-06-04T11:51:52;20.40;95.90
59007;DHT22;44792;52.760;6.726;2023-06-04T11:54:20;20.40;96.30
59007;DHT22;44792;52.760;6.726;2023-06-04T11:56:49;20.50;97.20
59007;DHT22;44792;52.760;6.726;2023-06-04T11:59:16;20.60;96.90
59007;DHT22;44792;52.760;6.726;2023-06-04T12:01:43;20.60;96.60
59007;DHT22;44792;52.760;6.726;2023-06-04T12:04:18;20.60;96.60
59007;DHT22;44792;52.760;6.726;2023-06-04T12:06:52;20.60;95.50
59007;DHT22;44792;52.760;6.726;2023-06-04T12:09:30;20.50;96.00
59007;DHT22;44792;52.760;6.726;2023-06-04T12:12:07;20.50;96.30
59007;DHT22;44792;52.760;6.726;2023-06-04T12:14:33;20.70;96.40
59007;DHT22;44792;52.760;6.726;2023-06-04T12:17:07;20.80;95.50
59007;DHT22;44792;52.760;6.726;2023-06-04T12:19:44;20.70;95.80
59007;DHT22;44792;52.760;6.726;2023-06-04T12:22:10;20.70;95.20
59007;DHT22;44792;52.760;6.726;2023-06-04T12:24:52;20.70;96.10
59007;DHT22;44792;52.760;6.726;2023-06-04T12:27:25;20.70;95.50
59007;DHT22;44792;52.760;6.726;2023-06-04T12:29:58;20.80;96.00
59007;DHT22;44792;52.760;6.726;2023-06-04T12:32:24;20.80;95.90
59007;DHT22;44792;52.760;6.726;2023-06-04T12:34:50;20.80;96.10
59007;DHT22;44792;52.760;6.726;2023-06-04T12:37:16;20.80;95.50
59007;DHT22;44792;52.760;6.726;2023-06-04T12:39:42;20.80;95.90
59007;DHT22;44792;52.760;6.726;2023-06-04T12:42:08;20.80;95.50
59007;DHT22;44792;52.760;6.726;2023-06-04T12:44:40;20.90;95.80
59007;DHT22;44792;52.760;6.726;2023-06-04T12:47:07;20.90;94.70
59007;DHT22;44792;52.760;6.726;2023-06-04T12:49:32;20.80;95.30
59007;DHT22;44792;52.760;6.726;2023-06-04T12:51:58;21.00;96.00
59007;DHT22;44792;52.760;6.726;2023-06-04T12:54:24;21.00;95.30
59007;DHT22;44792;52.760;6.726;2023-06-04T12:56:50;21.00;94.90
59007;DHT22;44792;52.760;6.726;2023-06-04T12:59:16;21.10;95.20
59007;DHT22;44792;52.760;6.726;2023-06-04T13:01:45;21.20;95.20
59007;DHT22;44792;52.760;6.726;2023-06-04T13:04:11;21.10;95.30
59007;DHT22;44792;52.760;6.726;2023-06-04T13:06:37;21.00;94.20
59007;DHT22;44792;52.760;6.726;2023-06-04T13:09:04;21.00;94.80
59007;DHT22;44792;52.760;6.726;2023-06-04T13:11:37;21.10;93.80
59007;DHT22;44792;52.760;6.726;2023-06-04T13:14:03;21.00;93.60
59007;DHT22;44792;52.760;6.726;2023-06-04T13:16:29;21.00;93.60
59007;DHT22;44792;52.760;6.726;2023-06-04T13:18:55;21.00;93.60
59007;DHT22;44792;52.760;6.726;2023-06-04T13:21:21;20.90;93.00
59007;DHT22;44792;52.760;6.726;2023-06-04T13:23:46;21.00;93.90
59007;DHT22;44792;52.760;6.726;2023-06-04T13:26:12;21.10;94.10
59007;DHT22;44792;52.760;6.726;2023-06-04T13:28:39;21.10;93.70
59007;DHT22;44792;52.760;6.726;2023-06-04T13:31:04;21.20;94.10
59007;DHT22;44792;52.760;6.726;2023-06-04T13:33:30;21.30;93.80
59007;DHT22;44792;52.760;6.726;2023-06-04T13:35:56;21.30;93.00
59007;DHT22;44792;52.760;6.726;2023-06-04T13:38:21;21.30;93.30
59007;DHT22;44792;52.760;6.726;2023-06-04T13:40:47;21.30;93.40
59007;DHT22;44792;52.760;6.726;2023-06-04T13:43:13;21.30;93.30
59007;DHT22;44792;52.760;6.726;2023-06-04T13:45:39;21.20;92.50
59007;DHT22;44792;52.760;6.726;2023-06-04T13:48:05;21.30;93.00
59007;DHT22;44792;52.760;6.726;2023-06-04T13:50:33;21.30;93.00
59007;DHT22;44792;52.760;6.726;2023-06-04T13:52:59;21.30;91.80
59007;DHT22;44792;52.760;6.726;2023-06-04T13:55:25;21.30;93.00
59007;DHT22;44792;52.760;6.726;2023-06-04T13:57:50;21.50;92.80
59007;DHT22;44792;52.760;6.726;2023-06-04T14:00:16;21.40;91.70
59007;DHT22;44792;52.760;6.726;2023-06-04T14:02:42;21.40;92.20
59007;DHT22;44792;52.760;6.726;2023-06-04T14:05:08;21.50;92.50
59007;DHT22;44792;52.760;6.726;2023-06-04T14:07:34;21.50;92.20
59007;DHT22;44792;52.760;6.726;2023-06-04T14:10:00;21.40;92.10
59007;DHT22;44792;52.760;6.726;2023-06-04T14:12:29;21.30;92.20
59007;DHT22;44792;52.760;6.726;2023-06-04T14:14:54;21.40;92.00
59007;DHT22;44792;52.760;6.726;2023-06-04T14:17:20;21.30;91.90
59007;DHT22;44792;52.760;6.726;2023-06-04T14:19:46;21.40;91.60
59007;DHT22;44792;52.760;6.726;2023-06-04T14:22:11;21.30;92.10
59007;DHT22;44792;52.760;6.726;2023-06-04T14:24:39;21.30;92.00
59007;DHT22;44792;52.760;6.726;2023-06-04T14:27:05;21.40;92.00
59007;DHT22;44792;52.760;6.726;2023-06-04T14:29:32;21.50;92.50
59007;DHT22;44792;52.760;6.726;2023-06-04T14:31:58;21.40;93.00
59007;DHT22;44792;52.760;6.726;2023-06-04T14:34:24;21.40;93.20
59007;DHT22;44792;52.760;6.726;2023-06-04T14:36:49;21.30;93.40
59007;DHT22;44792;52.760;6.726;2023-06-04T14:39:15;21.40;94.00
59007;DHT22;44792;52.760;6.726;2023-06-04T14:41:41;21.90;93.70
59007;DHT22;44792;52.760;6.726;2023-06-04T14:44:07;21.70;93.50
59007;DHT22;44792;52.760;6.726;2023-06-04T14:46:32;21.60;93.00
59007;DHT22;44792;52.760;6.726;2023-06-04T14:48:58;21.50;93.50
59007;DHT22;44792;52.760;6.726;2023-06-04T14:51:24;21.40;94.30
59007;DHT22;44792;52.760;6.726;2023-06-04T14:53:49;21.40;94.60
59007;DHT22;44792;52.760;6.726;2023-06-04T14:56:17;21.40;94.70
59007;DHT22;44792;52.760;6.726;2023-06-04T14:58:43;21.30;94.70
59007;DHT22;44792;52.760;6.726;2023-06-04T15:01:09;21.30;95.00
59007;DHT22;44792;52.760;6.726;2023-06-04T15:03:38;21.30;95.40
59007;DHT22;44792;52.760;6.726;2023-06-04T15:06:04;21.20;94.50
59007;DHT22;44792;52.760;6.726;2023-06-04T15:08:30;21.20;95.00
59007;DHT22;44792;52.760;6.726;2023-06-04T15:10:56;21.20;95.20
59007;DHT22;44792;52.760;6.726;2023-06-04T15:13:21;21.40;95.80
59007;DHT22;44792;52.760;6.726;2023-06-04T15:15:47;21.20;95.70
59007;DHT22;44792;52.760;6.726;2023-06-04T15:18:13;21.20;95.60
59007;DHT22;44792;52.760;6.726;2023-06-04T15:20:38;21.20;95.70
59007;DHT22;44792;52.760;6.726;2023-06-04T15:23:04;21.00;96.00
59007;DHT22;44792;52.760;6.726;2023-06-04T15:25:33;21.00;96.40
59007;DHT22;44792;52.760;6.726;2023-06-04T15:27:59;21.00;96.80
59007;DHT22;44792;52.760;6.726;2023-06-04T15:30:25;21.00;96.90
59007;DHT22;44792;52.760;6.726;2023-06-04T15:32:51;20.90;97.50
59007;DHT22;44792;52.760;6.726;2023-06-04T15:35:17;20.90;98.10
59007;DHT22;44792;52.760;6.726;2023-06-04T15:37:43;20.90;98.00
59007;DHT22;44792;52.760;6.726;2023-06-04T15:40:09;20.90;97.90
59007;DHT22;44792;52.760;6.726;2023-06-04T15:42:36;20.80;98.40